Portada
METAR-TAF:

METAR-TAF

Aeroports :

Aeroport Internacional del Caire

El Caire, Egipte

latitud: 30-08N, longitud: 031-24E, altitud: 64 m

Observació

L'informe es va fer fa 21 minuts, a les 08:30 UTC
Vent 5 kt del Nord
Temperatura 31°C
Humitat 49%
Pressió 1010 hPa
Visibilitat: 6000 m

METAR: HECA 240830Z 01005KT 6000 NSC 31/19 Q1010 NOSIG

Hora: 10:51 (08:51 UTC)

Pronòstic

L'informe es va fer fa 3 hores i 51 minuts, a les 05:00 UTC
Pronòstic vàlid del 24 a les 06 UTC al 25 a les 12 UTC
Vent 8 kt del Nord-Est
Temporalment
l' 24 a les 06 UTC al 24 a les 08 UTC
Evolucionant progressivament
l' 24 a les 06 UTC al 24 a les 08 UTC
Vent 10 kt del Nord
Visibilitat 10 km o més
sense núvols per sota de 1500 mi sense presència de cumulonimbus.

TAF: HECA 240500Z 2406/2512 04008KT VIS06KM NSC TEMPO 2406/2408 4000HZ BECMG 2406/2408 35010KT CAVOK

Observacions i pronòstics meteorològics de més de 4000 aeroports (METAR i TAF).

Les estacions disponibles són els punts grocs i vermells al mapa.

Posi el ratolí al punt desitjat per veure el nom de l'estació.

Feu clic per veure les observacions i els pronòstics meteorològics.

Per canviar el mapa: feu clic els botons verds amb una creu de color negre per apropar; al botó verd amb un guió per allunyar la imatge; o en les fletxes verdes per a mapes adjacents.


METAR-TAF: